sensor_id;sensor_type;location;lat;lon;timestamp;P1;durP1;ratioP1;P2;durP2;ratioP2
51082;SDS011;37131;42.694;23.350;2023-04-03T00:01:57;249.45;;;53.45;;
51082;SDS011;37131;42.694;23.350;2023-04-03T00:04:22;156.20;;;32.20;;
51082;SDS011;37131;42.694;23.350;2023-04-03T00:09:13;313.57;;;66.43;;
51082;SDS011;37131;42.694;23.350;2023-04-03T00:11:38;36.40;;;10.32;;
51082;SDS011;37131;42.694;23.350;2023-04-03T00:14:04;36.38;;;9.95;;
51082;SDS011;37131;42.694;23.350;2023-04-03T00:16:29;29.85;;;9.00;;
51082;SDS011;37131;42.694;23.350;2023-04-03T00:18:55;29.95;;;11.18;;
51082;SDS011;37131;42.694;23.350;2023-04-03T00:21:20;23.13;;;6.72;;
51082;SDS011;37131;42.694;23.350;2023-04-03T00:23:45;24.90;;;9.13;;
51082;SDS011;37131;42.694;23.350;2023-04-03T00:26:11;17.80;;;5.80;;
51082;SDS011;37131;42.694;23.350;2023-04-03T00:28:36;16.52;;;7.47;;
51082;SDS011;37131;42.694;23.350;2023-04-03T00:31:02;53.38;;;14.80;;
51082;SDS011;37131;42.694;23.350;2023-04-03T00:33:27;24.55;;;7.32;;
51082;SDS011;37131;42.694;23.350;2023-04-03T00:35:53;83.90;;;25.80;;
51082;SDS011;37131;42.694;23.350;2023-04-03T00:38:18;124.40;;;41.95;;
51082;SDS011;37131;42.694;23.350;2023-04-03T00:40:45;42.92;;;19.45;;
51082;SDS011;37131;42.694;23.350;2023-04-03T00:43:13;263.50;;;56.78;;
51082;SDS011;37131;42.694;23.350;2023-04-03T00:45:41;238.98;;;59.38;;
51082;SDS011;37131;42.694;23.350;2023-04-03T00:48:10;26.27;;;6.55;;
51082;SDS011;37131;42.694;23.350;2023-04-03T00:50:39;114.63;;;32.95;;
51082;SDS011;37131;42.694;23.350;2023-04-03T00:53:06;17.50;;;6.53;;
51082;SDS011;37131;42.694;23.350;2023-04-03T00:55:36;35.75;;;13.82;;
51082;SDS011;37131;42.694;23.350;2023-04-03T00:58:03;31.65;;;10.82;;
51082;SDS011;37131;42.694;23.350;2023-04-03T01:00:29;40.45;;;15.50;;
51082;SDS011;37131;42.694;23.350;2023-04-03T01:02:55;31.63;;;8.40;;
51082;SDS011;37131;42.694;23.350;2023-04-03T01:05:20;25.27;;;8.35;;
51082;SDS011;37131;42.694;23.350;2023-04-03T01:07:47;76.28;;;36.33;;
51082;SDS011;37131;42.694;23.350;2023-04-03T01:10:16;138.50;;;47.75;;
51082;SDS011;37131;42.694;23.350;2023-04-03T01:12:44;260.50;;;62.22;;
51082;SDS011;37131;42.694;23.350;2023-04-03T01:15:12;19.10;;;6.75;;
51082;SDS011;37131;42.694;23.350;2023-04-03T01:17:53;17.33;;;5.90;;
51082;SDS011;37131;42.694;23.350;2023-04-03T03:07:32;292.90;;;61.50;;
51082;SDS011;37131;42.694;23.350;2023-04-03T03:22:05;297.25;;;62.20;;
51082;SDS011;37131;42.694;23.350;2023-04-03T04:10:33;304.70;;;57.30;;
51082;SDS011;37131;42.694;23.350;2023-04-03T04:25:07;299.40;;;58.50;;
51082;SDS011;37131;42.694;23.350;2023-04-03T04:32:23;297.87;;;57.63;;
51082;SDS011;37131;42.694;23.350;2023-04-03T04:37:13;300.60;;;60.20;;
51082;SDS011;37131;42.694;23.350;2023-04-03T04:46:57;287.90;;;53.80;;
51082;SDS011;37131;42.694;23.350;2023-04-03T04:51:47;297.00;;;55.40;;
51082;SDS011;37131;42.694;23.350;2023-04-03T04:54:13;307.50;;;60.80;;
51082;SDS011;37131;42.694;23.350;2023-04-03T05:01:29;276.03;;;61.40;;
51082;SDS011;37131;42.694;23.350;2023-04-03T05:03:54;221.55;;;54.13;;
51082;SDS011;37131;42.694;23.350;2023-04-03T05:06:20;264.20;;;55.10;;
51082;SDS011;37131;42.694;23.350;2023-04-03T05:08:45;292.15;;;62.05;;
51082;SDS011;37131;42.694;23.350;2023-04-03T05:11:10;292.10;;;56.30;;
51082;SDS011;37131;42.694;23.350;2023-04-03T05:16:01;294.40;;;61.00;;
51082;SDS011;37131;42.694;23.350;2023-04-03T05:18:26;284.30;;;59.77;;
51082;SDS011;37131;42.694;23.350;2023-04-03T05:20:52;304.93;;;57.57;;
51082;SDS011;37131;42.694;23.350;2023-04-03T05:23:17;302.90;;;56.93;;
51082;SDS011;37131;42.694;23.350;2023-04-03T05:25:42;311.87;;;61.67;;
51082;SDS011;37131;42.694;23.350;2023-04-03T05:28:10;295.37;;;56.33;;
51082;SDS011;37131;42.694;23.350;2023-04-03T05:40:17;263.95;;;57.20;;
51082;SDS011;37131;42.694;23.350;2023-04-03T05:42:43;263.73;;;58.35;;
51082;SDS011;37131;42.694;23.350;2023-04-03T05:45:09;275.05;;;59.35;;
51082;SDS011;37131;42.694;23.350;2023-04-03T05:47:35;296.88;;;60.15;;
51082;SDS011;37131;42.694;23.350;2023-04-03T05:50:00;312.53;;;61.00;;
51082;SDS011;37131;42.694;23.350;2023-04-03T05:52:27;312.03;;;59.80;;
51082;SDS011;37131;42.694;23.350;2023-04-03T05:54:55;308.80;;;58.93;;
51082;SDS011;37131;42.694;23.350;2023-04-03T05:57:21;300.60;;;57.53;;
51082;SDS011;37131;42.694;23.350;2023-04-03T05:59:46;293.93;;;56.97;;
51082;SDS011;37131;42.694;23.350;2023-04-03T06:02:13;288.47;;;54.93;;
51082;SDS011;37131;42.694;23.350;2023-04-03T06:04:43;285.80;;;55.50;;
51082;SDS011;37131;42.694;23.350;2023-04-03T06:09:47;279.10;;;55.90;;
51082;SDS011;37131;42.694;23.350;2023-04-03T06:17:03;295.03;;;60.83;;
51082;SDS011;37131;42.694;23.350;2023-04-03T06:19:29;285.70;;;57.10;;
51082;SDS011;37131;42.694;23.350;2023-04-03T06:24:21;285.70;;;57.40;;
51082;SDS011;37131;42.694;23.350;2023-04-03T06:26:48;284.90;;;57.20;;
51082;SDS011;37131;42.694;23.350;2023-04-03T06:29:14;284.40;;;56.40;;
51082;SDS011;37131;42.694;23.350;2023-04-03T06:31:40;288.20;;;56.90;;
51082;SDS011;37131;42.694;23.350;2023-04-03T06:36:32;282.55;;;55.85;;
51082;SDS011;37131;42.694;23.350;2023-04-03T06:38:57;280.80;;;55.00;;
51082;SDS011;37131;42.694;23.350;2023-04-03T06:46:16;302.20;;;63.30;;
51082;SDS011;37131;42.694;23.350;2023-04-03T06:53:56;309.52;;;63.88;;
51082;SDS011;37131;42.694;23.350;2023-04-03T06:56:23;310.92;;;66.75;;
51082;SDS011;37131;42.694;23.350;2023-04-03T06:58:50;297.95;;;59.85;;
51082;SDS011;37131;42.694;23.350;2023-04-03T07:01:16;299.80;;;58.80;;
51082;SDS011;37131;42.694;23.350;2023-04-03T07:03:44;299.10;;;57.20;;
51082;SDS011;37131;42.694;23.350;2023-04-03T07:06:13;294.55;;;57.40;;
51082;SDS011;37131;42.694;23.350;2023-04-03T07:11:06;298.10;;;57.70;;
51082;SDS011;37131;42.694;23.350;2023-04-03T07:13:32;289.50;;;56.40;;
51082;SDS011;37131;42.694;23.350;2023-04-03T07:15:57;296.15;;;57.25;;
51082;SDS011;37131;42.694;23.350;2023-04-03T07:18:23;295.00;;;58.60;;
51082;SDS011;37131;42.694;23.350;2023-04-03T07:20:48;298.10;;;58.50;;
51082;SDS011;37131;42.694;23.350;2023-04-03T07:23:14;294.05;;;58.70;;
51082;SDS011;37131;42.694;23.350;2023-04-03T07:25:44;300.10;;;59.70;;
51082;SDS011;37131;42.694;23.350;2023-04-03T07:28:11;301.90;;;58.80;;
51082;SDS011;37131;42.694;23.350;2023-04-03T07:35:38;298.20;;;59.10;;
51082;SDS011;37131;42.694;23.350;2023-04-03T07:38:04;297.00;;;58.50;;
51082;SDS011;37131;42.694;23.350;2023-04-03T07:40:31;299.90;;;58.60;;
51082;SDS011;37131;42.694;23.350;2023-04-03T07:47:48;295.20;;;59.20;;
51082;SDS011;37131;42.694;23.350;2023-04-03T07:50:13;310.13;;;70.60;;
51082;SDS011;37131;42.694;23.350;2023-04-03T07:57:30;21.85;;;7.00;;
51082;SDS011;37131;42.694;23.350;2023-04-03T07:59:56;80.90;;;18.80;;
51082;SDS011;37131;42.694;23.350;2023-04-03T08:02:21;34.13;;;9.32;;
51082;SDS011;37131;42.694;23.350;2023-04-03T08:04:47;181.07;;;35.43;;
51082;SDS011;37131;42.694;23.350;2023-04-03T08:07:12;289.07;;;64.23;;
51082;SDS011;37131;42.694;23.350;2023-04-03T08:09:37;23.77;;;7.30;;
51082;SDS011;37131;42.694;23.350;2023-04-03T08:21:46;38.33;;;10.87;;
51082;SDS011;37131;42.694;23.350;2023-04-03T08:24:11;13.73;;;4.85;;
51082;SDS011;37131;42.694;23.350;2023-04-03T08:26:37;18.52;;;5.97;;
51082;SDS011;37131;42.694;23.350;2023-04-03T08:29:03;13.10;;;5.18;;
51082;SDS011;37131;42.694;23.350;2023-04-03T08:31:29;10.32;;;4.60;;
51082;SDS011;37131;42.694;23.350;2023-04-03T08:33:56;22.17;;;7.60;;
51082;SDS011;37131;42.694;23.350;2023-04-03T08:36:23;16.65;;;5.95;;
51082;SDS011;37131;42.694;23.350;2023-04-03T08:38:51;11.05;;;5.05;;
51082;SDS011;37131;42.694;23.350;2023-04-03T08:41:20;19.10;;;6.07;;
51082;SDS011;37131;42.694;23.350;2023-04-03T08:51:53;14.80;;;5.65;;
51082;SDS011;37131;42.694;23.350;2023-04-03T09:02:49;10.15;;;4.43;;
51082;SDS011;37131;42.694;23.350;2023-04-03T09:05:20;10.05;;;3.83;;
51082;SDS011;37131;42.694;23.350;2023-04-03T09:08:40;12.68;;;4.88;;
51082;SDS011;37131;42.694;23.350;2023-04-03T09:13:57;11.32;;;4.43;;
51082;SDS011;37131;42.694;23.350;2023-04-03T09:16:32;9.38;;;4.25;;
51082;SDS011;37131;42.694;23.350;2023-04-03T09:21:58;14.88;;;5.07;;
51082;SDS011;37131;42.694;23.350;2023-04-03T09:24:27;11.55;;;4.55;;
51082;SDS011;37131;42.694;23.350;2023-04-03T09:31:58;14.55;;;4.88;;
51082;SDS011;37131;42.694;23.350;2023-04-03T09:34:27;43.92;;;17.92;;
51082;SDS011;37131;42.694;23.350;2023-04-03T09:36:56;16.25;;;5.97;;
51082;SDS011;37131;42.694;23.350;2023-04-03T09:39:29;14.02;;;5.28;;
51082;SDS011;37131;42.694;23.350;2023-04-03T09:44:24;16.40;;;5.68;;
51082;SDS011;37131;42.694;23.350;2023-04-03T09:46:51;20.63;;;6.25;;
51082;SDS011;37131;42.694;23.350;2023-04-03T09:49:18;14.52;;;5.88;;
51082;SDS011;37131;42.694;23.350;2023-04-03T09:51:44;21.40;;;6.28;;
51082;SDS011;37131;42.694;23.350;2023-04-03T09:57:06;13.88;;;5.18;;
51082;SDS011;37131;42.694;23.350;2023-04-03T09:59:38;15.13;;;5.90;;
51082;SDS011;37131;42.694;23.350;2023-04-03T10:04:48;8.15;;;4.05;;
51082;SDS011;37131;42.694;23.350;2023-04-03T10:07:25;10.88;;;4.35;;
51082;SDS011;37131;42.694;23.350;2023-04-03T10:09:56;8.25;;;4.65;;
51082;SDS011;37131;42.694;23.350;2023-04-03T10:12:24;16.00;;;4.50;;
51082;SDS011;37131;42.694;23.350;2023-04-03T10:17:31;9.75;;;3.90;;
51082;SDS011;37131;42.694;23.350;2023-04-03T10:20:09;9.70;;;3.85;;
51082;SDS011;37131;42.694;23.350;2023-04-03T10:28:14;14.32;;;4.10;;
51082;SDS011;37131;42.694;23.350;2023-04-03T10:30:58;9.90;;;3.65;;
51082;SDS011;37131;42.694;23.350;2023-04-03T10:44:37;5.90;;;2.78;;
51082;SDS011;37131;42.694;23.350;2023-04-03T10:57:52;5.32;;;2.58;;
51082;SDS011;37131;42.694;23.350;2023-04-03T11:00:36;9.02;;;3.15;;
51082;SDS011;37131;42.694;23.350;2023-04-03T11:03:16;7.53;;;2.70;;
51082;SDS011;37131;42.694;23.350;2023-04-03T11:05:52;7.70;;;2.47;;
51082;SDS011;37131;42.694;23.350;2023-04-03T11:08:27;9.77;;;2.78;;
51082;SDS011;37131;42.694;23.350;2023-04-03T11:11:06;4.45;;;1.80;;
51082;SDS011;37131;42.694;23.350;2023-04-03T11:13:40;4.72;;;1.70;;
51082;SDS011;37131;42.694;23.350;2023-04-03T11:16:13;4.70;;;1.85;;
51082;SDS011;37131;42.694;23.350;2023-04-03T11:18:44;2.20;;;1.40;;
51082;SDS011;37131;42.694;23.350;2023-04-03T11:21:21;3.72;;;1.50;;
51082;SDS011;37131;42.694;23.350;2023-04-03T11:23:54;4.20;;;1.20;;
51082;SDS011;37131;42.694;23.350;2023-04-03T11:26:24;3.35;;;1.40;;
51082;SDS011;37131;42.694;23.350;2023-04-03T11:28:56;6.20;;;1.42;;
51082;SDS011;37131;42.694;23.350;2023-04-03T11:36:51;2.88;;;1.20;;
51082;SDS011;37131;42.694;23.350;2023-04-03T11:41:48;3.35;;;1.33;;
51082;SDS011;37131;42.694;23.350;2023-04-03T11:44:32;2.60;;;1.10;;
51082;SDS011;37131;42.694;23.350;2023-04-03T11:47:03;1.85;;;1.10;;
51082;SDS011;37131;42.694;23.350;2023-04-03T12:05:54;3.03;;;1.60;;
51082;SDS011;37131;42.694;23.350;2023-04-03T12:08:43;2.70;;;1.23;;
51082;SDS011;37131;42.694;23.350;2023-04-03T12:13:38;2.10;;;0.98;;
51082;SDS011;37131;42.694;23.350;2023-04-03T12:16:08;1.52;;;0.90;;
51082;SDS011;37131;42.694;23.350;2023-04-03T12:21:22;4.05;;;1.20;;
51082;SDS011;37131;42.694;23.350;2023-04-03T12:43:20;4.10;;;2.10;;
51082;SDS011;37131;42.694;23.350;2023-04-03T12:45:50;6.28;;;2.13;;
51082;SDS011;37131;42.694;23.350;2023-04-03T12:48:26;5.63;;;2.30;;
51082;SDS011;37131;42.694;23.350;2023-04-03T12:50:54;4.03;;;2.08;;
51082;SDS011;37131;42.694;23.350;2023-04-03T12:53:25;5.20;;;1.90;;
51082;SDS011;37131;42.694;23.350;2023-04-03T12:55:55;6.13;;;2.05;;
51082;SDS011;37131;42.694;23.350;2023-04-03T12:58:22;6.78;;;2.08;;
51082;SDS011;37131;42.694;23.350;2023-04-03T13:01:03;11.13;;;2.97;;
51082;SDS011;37131;42.694;23.350;2023-04-03T13:03:35;4.05;;;1.77;;
51082;SDS011;37131;42.694;23.350;2023-04-03T13:06:04;5.80;;;2.17;;
51082;SDS011;37131;42.694;23.350;2023-04-03T13:08:30;4.20;;;1.70;;
51082;SDS011;37131;42.694;23.350;2023-04-03T13:11:04;5.70;;;2.03;;
51082;SDS011;37131;42.694;23.350;2023-04-03T13:13:35;7.78;;;2.58;;
51082;SDS011;37131;42.694;23.350;2023-04-03T13:16:07;3.85;;;1.95;;
51082;SDS011;37131;42.694;23.350;2023-04-03T13:18:35;5.10;;;2.43;;
51082;SDS011;37131;42.694;23.350;2023-04-03T13:21:03;5.30;;;2.00;;
51082;SDS011;37131;42.694;23.350;2023-04-03T13:23:33;4.88;;;2.42;;
51082;SDS011;37131;42.694;23.350;2023-04-03T13:26:01;4.75;;;1.90;;
51082;SDS011;37131;42.694;23.350;2023-04-03T13:28:28;5.38;;;2.38;;
51082;SDS011;37131;42.694;23.350;2023-04-03T13:30:57;13.80;;;3.28;;
51082;SDS011;37131;42.694;23.350;2023-04-03T13:36:18;5.63;;;2.30;;
51082;SDS011;37131;42.694;23.350;2023-04-03T13:38:46;6.18;;;2.22;;
51082;SDS011;37131;42.694;23.350;2023-04-03T13:41:29;6.22;;;2.33;;
51082;SDS011;37131;42.694;23.350;2023-04-03T13:43:55;3.65;;;1.88;;
51082;SDS011;37131;42.694;23.350;2023-04-03T13:46:23;5.32;;;1.90;;
51082;SDS011;37131;42.694;23.350;2023-04-03T13:48:52;4.28;;;2.28;;
51082;SDS011;37131;42.694;23.350;2023-04-03T13:56:26;4.65;;;2.17;;
51082;SDS011;37131;42.694;23.350;2023-04-03T13:58:57;72.80;;;17.92;;
51082;SDS011;37131;42.694;23.350;2023-04-03T14:01:23;3.63;;;2.00;;
51082;SDS011;37131;42.694;23.350;2023-04-03T14:03:54;64.35;;;17.75;;
51082;SDS011;37131;42.694;23.350;2023-04-03T14:06:22;73.40;;;23.27;;
51082;SDS011;37131;42.694;23.350;2023-04-03T14:08:49;109.53;;;26.83;;
51082;SDS011;37131;42.694;23.350;2023-04-03T14:11:16;8.20;;;3.05;;
51082;SDS011;37131;42.694;23.350;2023-04-03T14:13:42;8.13;;;2.47;;
51082;SDS011;37131;42.694;23.350;2023-04-03T14:16:11;3.78;;;1.80;;
51082;SDS011;37131;42.694;23.350;2023-04-03T14:18:38;99.18;;;23.05;;
51082;SDS011;37131;42.694;23.350;2023-04-03T14:21:04;123.95;;;27.88;;
51082;SDS011;37131;42.694;23.350;2023-04-03T14:23:29;119.35;;;25.23;;
51082;SDS011;37131;42.694;23.350;2023-04-03T14:25:55;94.07;;;25.88;;
51082;SDS011;37131;42.694;23.350;2023-04-03T14:28:22;6.20;;;1.80;;
51082;SDS011;37131;42.694;23.350;2023-04-03T14:30:49;3.47;;;1.73;;
51082;SDS011;37131;42.694;23.350;2023-04-03T14:33:18;3.25;;;1.45;;
51082;SDS011;37131;42.694;23.350;2023-04-03T14:35:46;94.95;;;24.08;;
51082;SDS011;37131;42.694;23.350;2023-04-03T14:38:23;6.40;;;2.45;;
51082;SDS011;37131;42.694;23.350;2023-04-03T14:40:51;8.35;;;3.00;;
51082;SDS011;37131;42.694;23.350;2023-04-03T14:43:17;3.15;;;2.08;;
51082;SDS011;37131;42.694;23.350;2023-04-03T14:45:43;3.25;;;1.52;;
51082;SDS011;37131;42.694;23.350;2023-04-03T14:48:23;3.78;;;1.95;;
51082;SDS011;37131;42.694;23.350;2023-04-03T14:50:51;5.18;;;2.00;;
51082;SDS011;37131;42.694;23.350;2023-04-03T14:53:18;5.65;;;2.10;;
51082;SDS011;37131;42.694;23.350;2023-04-03T14:55:48;3.97;;;1.98;;
51082;SDS011;37131;42.694;23.350;2023-04-03T14:58:15;3.58;;;1.85;;
51082;SDS011;37131;42.694;23.350;2023-04-03T15:00:43;5.32;;;2.45;;
51082;SDS011;37131;42.694;23.350;2023-04-03T15:03:12;7.03;;;3.85;;
51082;SDS011;37131;42.694;23.350;2023-04-03T15:05:46;4.30;;;1.60;;
51082;SDS011;37131;42.694;23.350;2023-04-03T15:08:17;2.80;;;1.65;;
51082;SDS011;37131;42.694;23.350;2023-04-03T15:10:51;7.25;;;1.95;;
51082;SDS011;37131;42.694;23.350;2023-04-03T15:13:21;2.45;;;1.45;;
51082;SDS011;37131;42.694;23.350;2023-04-03T15:15:47;4.60;;;1.00;;
51082;SDS011;37131;42.694;23.350;2023-04-03T15:18:15;2.95;;;1.50;;
51082;SDS011;37131;42.694;23.350;2023-04-03T15:20:43;2.20;;;1.27;;
51082;SDS011;37131;42.694;23.350;2023-04-03T15:23:10;19.00;;;8.43;;
51082;SDS011;37131;42.694;23.350;2023-04-03T15:25:37;1.42;;;0.80;;
51082;SDS011;37131;42.694;23.350;2023-04-03T15:28:03;2.00;;;1.20;;
51082;SDS011;37131;42.694;23.350;2023-04-03T15:30:28;52.00;;;14.20;;
51082;SDS011;37131;42.694;23.350;2023-04-03T15:32:54;2.88;;;1.65;;
51082;SDS011;37131;42.694;23.350;2023-04-03T15:35:20;76.93;;;33.80;;
51082;SDS011;37131;42.694;23.350;2023-04-03T15:37:45;81.38;;;33.40;;
51082;SDS011;37131;42.694;23.350;2023-04-03T15:40:11;96.93;;;40.13;;
51082;SDS011;37131;42.694;23.350;2023-04-03T15:42:37;144.75;;;45.88;;
51082;SDS011;37131;42.694;23.350;2023-04-03T15:45:02;165.20;;;47.13;;
51082;SDS011;37131;42.694;23.350;2023-04-03T15:47:28;5.85;;;2.35;;
51082;SDS011;37131;42.694;23.350;2023-04-03T15:49:54;188.50;;;41.80;;
51082;SDS011;37131;42.694;23.350;2023-04-03T15:52:20;4.80;;;1.98;;
51082;SDS011;37131;42.694;23.350;2023-04-03T15:54:45;3.00;;;1.63;;
51082;SDS011;37131;42.694;23.350;2023-04-03T15:57:11;3.30;;;1.52;;
51082;SDS011;37131;42.694;23.350;2023-04-03T15:59:36;5.70;;;2.10;;
51082;SDS011;37131;42.694;23.350;2023-04-03T16:02:02;7.82;;;1.98;;
51082;SDS011;37131;42.694;23.350;2023-04-03T16:04:30;4.30;;;2.05;;
51082;SDS011;37131;42.694;23.350;2023-04-03T16:06:55;4.95;;;1.92;;
51082;SDS011;37131;42.694;23.350;2023-04-03T16:09:21;5.30;;;2.35;;
51082;SDS011;37131;42.694;23.350;2023-04-03T16:11:47;4.28;;;2.05;;
51082;SDS011;37131;42.694;23.350;2023-04-03T16:14:12;4.13;;;1.90;;
51082;SDS011;37131;42.694;23.350;2023-04-03T16:16:38;5.80;;;2.30;;
51082;SDS011;37131;42.694;23.350;2023-04-03T16:19:03;10.65;;;2.67;;
51082;SDS011;37131;42.694;23.350;2023-04-03T16:21:30;6.70;;;2.75;;
51082;SDS011;37131;42.694;23.350;2023-04-03T16:23:57;6.68;;;3.13;;
51082;SDS011;37131;42.694;23.350;2023-04-03T16:26:23;14.30;;;4.25;;
51082;SDS011;37131;42.694;23.350;2023-04-03T16:28:48;37.65;;;13.48;;
51082;SDS011;37131;42.694;23.350;2023-04-03T16:31:14;9.45;;;3.17;;
51082;SDS011;37131;42.694;23.350;2023-04-03T16:33:39;10.15;;;3.85;;
51082;SDS011;37131;42.694;23.350;2023-04-03T16:36:05;5.97;;;2.90;;
51082;SDS011;37131;42.694;23.350;2023-04-03T16:38:31;29.77;;;8.48;;
51082;SDS011;37131;42.694;23.350;2023-04-03T16:40:57;5.30;;;2.65;;
51082;SDS011;37131;42.694;23.350;2023-04-03T16:43:24;5.10;;;2.67;;
51082;SDS011;37131;42.694;23.350;2023-04-03T16:45:50;153.82;;;58.13;;
51082;SDS011;37131;42.694;23.350;2023-04-03T16:48:16;3.03;;;1.98;;
51082;SDS011;37131;42.694;23.350;2023-04-03T16:50:41;5.72;;;2.17;;
51082;SDS011;37131;42.694;23.350;2023-04-03T16:53:07;5.70;;;2.58;;
51082;SDS011;37131;42.694;23.350;2023-04-03T16:55:35;5.22;;;2.30;;
51082;SDS011;37131;42.694;23.350;2023-04-03T16:58:00;6.25;;;2.35;;
51082;SDS011;37131;42.694;23.350;2023-04-03T17:00:26;3.75;;;1.63;;
51082;SDS011;37131;42.694;23.350;2023-04-03T17:02:54;4.13;;;1.83;;
51082;SDS011;37131;42.694;23.350;2023-04-03T17:05:20;4.25;;;2.20;;
51082;SDS011;37131;42.694;23.350;2023-04-03T17:07:45;4.68;;;2.40;;
51082;SDS011;37131;42.694;23.350;2023-04-03T17:10:11;5.97;;;2.88;;
51082;SDS011;37131;42.694;23.350;2023-04-03T17:12:37;140.02;;;56.47;;
51082;SDS011;37131;42.694;23.350;2023-04-03T17:15:03;3.08;;;1.08;;
51082;SDS011;37131;42.694;23.350;2023-04-03T17:17:29;14.55;;;3.88;;
51082;SDS011;37131;42.694;23.350;2023-04-03T17:19:54;4.38;;;1.58;;
51082;SDS011;37131;42.694;23.350;2023-04-03T17:22:20;4.05;;;1.55;;
51082;SDS011;37131;42.694;23.350;2023-04-03T17:24:46;3.33;;;1.70;;
51082;SDS011;37131;42.694;23.350;2023-04-03T17:27:11;75.28;;;30.13;;
51082;SDS011;37131;42.694;23.350;2023-04-03T17:29:37;3.05;;;1.60;;
51082;SDS011;37131;42.694;23.350;2023-04-03T17:32:02;4.47;;;1.55;;
51082;SDS011;37131;42.694;23.350;2023-04-03T17:34:28;32.83;;;12.10;;
51082;SDS011;37131;42.694;23.350;2023-04-03T17:36:53;61.88;;;23.45;;
51082;SDS011;37131;42.694;23.350;2023-04-03T17:39:18;42.53;;;24.80;;
51082;SDS011;37131;42.694;23.350;2023-04-03T17:41:44;156.32;;;37.20;;
51082;SDS011;37131;42.694;23.350;2023-04-03T17:44:10;144.98;;;33.53;;
51082;SDS011;37131;42.694;23.350;2023-04-03T17:46:36;98.43;;;22.65;;
51082;SDS011;37131;42.694;23.350;2023-04-03T17:49:02;62.58;;;18.85;;
51082;SDS011;37131;42.694;23.350;2023-04-03T17:51:28;102.70;;;29.23;;
51082;SDS011;37131;42.694;23.350;2023-04-03T17:53:54;163.23;;;32.17;;
51082;SDS011;37131;42.694;23.350;2023-04-03T17:56:21;152.43;;;31.45;;
51082;SDS011;37131;42.694;23.350;2023-04-03T17:58:48;201.20;;;49.05;;
51082;SDS011;37131;42.694;23.350;2023-04-03T18:04:01;6.40;;;1.95;;
51082;SDS011;37131;42.694;23.350;2023-04-03T18:06:31;3.53;;;1.13;;
51082;SDS011;37131;42.694;23.350;2023-04-03T18:09:12;3.45;;;1.23;;
51082;SDS011;37131;42.694;23.350;2023-04-03T18:11:41;1.95;;;1.20;;
51082;SDS011;37131;42.694;23.350;2023-04-03T18:14:08;2.60;;;1.10;;
51082;SDS011;37131;42.694;23.350;2023-04-03T18:16:34;2.63;;;0.95;;
51082;SDS011;37131;42.694;23.350;2023-04-03T18:19:00;22.98;;;7.15;;
51082;SDS011;37131;42.694;23.350;2023-04-03T18:21:25;2.38;;;1.15;;
51082;SDS011;37131;42.694;23.350;2023-04-03T18:23:52;2.08;;;1.05;;
51082;SDS011;37131;42.694;23.350;2023-04-03T18:26:18;3.53;;;1.20;;
51082;SDS011;37131;42.694;23.350;2023-04-03T18:28:47;2.80;;;1.10;;
51082;SDS011;37131;42.694;23.350;2023-04-03T18:31:17;2.15;;;1.15;;
51082;SDS011;37131;42.694;23.350;2023-04-03T18:33:43;2.08;;;1.15;;
51082;SDS011;37131;42.694;23.350;2023-04-03T18:36:09;107.38;;;25.15;;
51082;SDS011;37131;42.694;23.350;2023-04-03T18:38:35;2.08;;;1.05;;
51082;SDS011;37131;42.694;23.350;2023-04-03T18:41:00;3.15;;;1.73;;
51082;SDS011;37131;42.694;23.350;2023-04-03T18:43:27;1.95;;;1.30;;
51082;SDS011;37131;42.694;23.350;2023-04-03T18:45:53;31.92;;;9.77;;
51082;SDS011;37131;42.694;23.350;2023-04-03T18:48:19;4.10;;;1.65;;
51082;SDS011;37131;42.694;23.350;2023-04-03T18:50:45;5.18;;;1.75;;
51082;SDS011;37131;42.694;23.350;2023-04-03T18:53:12;6.10;;;1.92;;
51082;SDS011;37131;42.694;23.350;2023-04-03T18:55:38;2.60;;;1.73;;
51082;SDS011;37131;42.694;23.350;2023-04-03T18:58:03;2.80;;;1.40;;
51082;SDS011;37131;42.694;23.350;2023-04-03T19:00:29;3.22;;;1.35;;
51082;SDS011;37131;42.694;23.350;2023-04-03T19:02:54;3.28;;;1.35;;
51082;SDS011;37131;42.694;23.350;2023-04-03T19:05:19;114.82;;;35.80;;
51082;SDS011;37131;42.694;23.350;2023-04-03T19:07:46;4.13;;;1.83;;
51082;SDS011;37131;42.694;23.350;2023-04-03T19:10:13;3.50;;;1.45;;
51082;SDS011;37131;42.694;23.350;2023-04-03T19:12:44;2.28;;;1.05;;
51082;SDS011;37131;42.694;23.350;2023-04-03T19:15:14;2.97;;;1.10;;
51082;SDS011;37131;42.694;23.350;2023-04-03T19:17:41;4.75;;;1.25;;
51082;SDS011;37131;42.694;23.350;2023-04-03T19:20:07;2.38;;;1.50;;
51082;SDS011;37131;42.694;23.350;2023-04-03T19:22:33;4.03;;;1.42;;
51082;SDS011;37131;42.694;23.350;2023-04-03T19:24:59;5.60;;;1.50;;
51082;SDS011;37131;42.694;23.350;2023-04-03T19:27:25;3.70;;;1.20;;
51082;SDS011;37131;42.694;23.350;2023-04-03T19:29:50;3.95;;;1.08;;
51082;SDS011;37131;42.694;23.350;2023-04-03T19:32:16;2.83;;;1.10;;
51082;SDS011;37131;42.694;23.350;2023-04-03T19:34:41;2.10;;;1.02;;
51082;SDS011;37131;42.694;23.350;2023-04-03T19:37:07;3.03;;;0.80;;
51082;SDS011;37131;42.694;23.350;2023-04-03T19:39:32;1.67;;;0.50;;
51082;SDS011;37131;42.694;23.350;2023-04-03T19:42:01;0.95;;;0.60;;
51082;SDS011;37131;42.694;23.350;2023-04-03T19:44:28;1.42;;;0.88;;
51082;SDS011;37131;42.694;23.350;2023-04-03T19:46:57;1.00;;;0.50;;
51082;SDS011;37131;42.694;23.350;2023-04-03T19:49:23;1.90;;;0.60;;
51082;SDS011;37131;42.694;23.350;2023-04-03T19:51:48;1.80;;;0.80;;
51082;SDS011;37131;42.694;23.350;2023-04-03T19:54:14;1.98;;;0.60;;
51082;SDS011;37131;42.694;23.350;2023-04-03T19:56:39;5.47;;;0.93;;
51082;SDS011;37131;42.694;23.350;2023-04-03T19:59:05;3.92;;;0.70;;
51082;SDS011;37131;42.694;23.350;2023-04-03T20:01:30;2.30;;;0.70;;
51082;SDS011;37131;42.694;23.350;2023-04-03T20:03:58;2.40;;;0.80;;
51082;SDS011;37131;42.694;23.350;2023-04-03T20:06:23;1.33;;;0.70;;
51082;SDS011;37131;42.694;23.350;2023-04-03T20:08:49;3.10;;;0.85;;
51082;SDS011;37131;42.694;23.350;2023-04-03T20:11:14;2.20;;;0.98;;
51082;SDS011;37131;42.694;23.350;2023-04-03T20:13:40;2.22;;;1.10;;
51082;SDS011;37131;42.694;23.350;2023-04-03T20:16:05;4.03;;;1.30;;
51082;SDS011;37131;42.694;23.350;2023-04-03T20:18:32;4.03;;;1.25;;
51082;SDS011;37131;42.694;23.350;2023-04-03T20:20:58;2.13;;;0.90;;
51082;SDS011;37131;42.694;23.350;2023-04-03T20:23:26;2.30;;;0.73;;
51082;SDS011;37131;42.694;23.350;2023-04-03T20:25:52;1.70;;;0.60;;
51082;SDS011;37131;42.694;23.350;2023-04-03T20:28:19;2.75;;;1.00;;
51082;SDS011;37131;42.694;23.350;2023-04-03T20:30:47;2.40;;;0.85;;
51082;SDS011;37131;42.694;23.350;2023-04-03T20:33:15;2.47;;;0.80;;
51082;SDS011;37131;42.694;23.350;2023-04-03T20:35:41;3.30;;;1.10;;
51082;SDS011;37131;42.694;23.350;2023-04-03T20:38:07;2.17;;;0.77;;
51082;SDS011;37131;42.694;23.350;2023-04-03T20:40:35;1.08;;;0.57;;
51082;SDS011;37131;42.694;23.350;2023-04-03T20:43:02;2.45;;;1.02;;
51082;SDS011;37131;42.694;23.350;2023-04-03T20:45:27;1.77;;;0.98;;
51082;SDS011;37131;42.694;23.350;2023-04-03T20:47:56;1.15;;;0.63;;
51082;SDS011;37131;42.694;23.350;2023-04-03T20:50:21;121.20;;;30.70;;
51082;SDS011;37131;42.694;23.350;2023-04-03T20:52:47;0.75;;;0.55;;